createdAt,value
2017-12-20T00:01:25.807Z,90.50
2017-12-20T00:03:53.298Z,90.70
2017-12-20T00:06:20.766Z,90.70
2017-12-20T00:08:48.247Z,90.80
2017-12-20T00:11:15.711Z,90.80
2017-12-20T00:13:43.999Z,90.90
2017-12-20T00:16:12.226Z,90.90
2017-12-20T00:18:39.691Z,90.90
2017-12-20T00:21:07.174Z,90.90
2017-12-20T00:23:34.675Z,90.90
2017-12-20T00:26:02.172Z,90.90
2017-12-20T00:28:29.686Z,91.00
2017-12-20T00:30:57.149Z,90.90
2017-12-20T00:33:24.629Z,91.00
2017-12-20T00:35:52.123Z,91.00
2017-12-20T00:38:19.624Z,91.00
2017-12-20T00:40:47.087Z,91.00
2017-12-20T00:43:14.578Z,91.00
2017-12-20T00:45:42.053Z,91.00
2017-12-20T00:48:09.600Z,91.00
2017-12-20T00:50:37.101Z,91.10
2017-12-20T00:53:05.323Z,91.00
2017-12-20T00:55:32.815Z,91.00
2017-12-20T00:58:01.078Z,91.10
2017-12-20T01:00:28.576Z,91.10
2017-12-20T01:02:56.830Z,91.10
2017-12-20T01:05:24.306Z,91.10
2017-12-20T01:07:52.560Z,91.10
2017-12-20T01:10:20.026Z,91.10
2017-12-20T01:12:48.306Z,91.20
2017-12-20T01:15:16.554Z,91.20
2017-12-20T01:17:44.029Z,91.20
2017-12-20T01:20:11.531Z,91.20
2017-12-20T01:22:39.007Z,91.20
2017-12-20T01:25:06.486Z,91.10
2017-12-20T01:27:33.955Z,91.20
2017-12-20T01:30:01.413Z,91.20
2017-12-20T01:32:28.919Z,91.20
2017-12-20T01:34:56.382Z,91.20
2017-12-20T01:37:23.848Z,91.20
2017-12-20T01:39:51.339Z,91.20
2017-12-20T01:42:18.807Z,91.20
2017-12-20T01:44:46.300Z,91.20
2017-12-20T01:47:13.770Z,91.20
2017-12-20T01:49:41.280Z,91.20
2017-12-20T01:52:08.754Z,91.20
2017-12-20T01:54:37.025Z,91.20
2017-12-20T01:57:04.530Z,91.20
2017-12-20T01:59:31.990Z,91.10
2017-12-20T02:01:59.493Z,91.20
2017-12-20T02:04:26.987Z,91.10
2017-12-20T02:06:54.469Z,91.10
2017-12-20T02:09:21.962Z,91.10
2017-12-20T02:11:49.447Z,91.20
2017-12-20T02:14:17.671Z,91.20
2017-12-20T02:16:45.166Z,91.20
2017-12-20T02:19:12.651Z,91.20
2017-12-20T02:21:40.109Z,91.10
2017-12-20T02:24:08.338Z,91.00
2017-12-20T02:26:36.609Z,91.10
2017-12-20T02:29:04.052Z,91.10
2017-12-20T02:31:31.544Z,91.00
2017-12-20T02:33:59.031Z,91.00
2017-12-20T02:36:27.254Z,91.00
2017-12-20T02:38:54.741Z,90.90
2017-12-20T02:41:22.255Z,90.90
2017-12-20T02:43:49.724Z,90.90
2017-12-20T02:46:17.218Z,90.80
2017-12-20T02:48:44.694Z,90.90
2017-12-20T02:51:12.939Z,90.80
2017-12-20T02:53:40.424Z,90.80
2017-12-20T02:56:08.682Z,90.80
2017-12-20T02:58:36.139Z,90.80
2017-12-20T03:01:03.650Z,90.80
2017-12-20T03:03:31.114Z,90.80
2017-12-20T03:05:58.583Z,90.70
2017-12-20T03:08:26.043Z,90.80
2017-12-20T03:10:53.519Z,90.80
2017-12-20T03:13:20.994Z,90.80
2017-12-20T03:15:48.450Z,90.80
2017-12-20T03:18:15.979Z,90.90
2017-12-20T03:20:43.442Z,90.90
2017-12-20T03:23:10.898Z,90.90
2017-12-20T03:25:38.387Z,91.00
2017-12-20T03:28:05.843Z,91.00
2017-12-20T03:30:33.340Z,91.10
2017-12-20T03:33:00.798Z,91.10
2017-12-20T03:35:28.279Z,91.10
2017-12-20T03:37:55.787Z,91.20
2017-12-20T03:40:23.291Z,91.10
2017-12-20T03:42:50.750Z,91.10
2017-12-20T03:45:18.234Z,91.20
2017-12-20T03:47:45.740Z,91.20
2017-12-20T03:50:13.946Z,91.40
2017-12-20T03:52:41.442Z,91.30
2017-12-20T03:55:08.902Z,91.40
2017-12-20T03:57:36.371Z,91.40
2017-12-20T04:00:03.849Z,91.40
2017-12-20T04:02:32.087Z,91.40
2017-12-20T04:04:59.650Z,91.40
2017-12-20T04:07:27.106Z,91.40
2017-12-20T04:09:54.578Z,91.40
2017-12-20T04:12:22.080Z,91.40
2017-12-20T04:14:49.542Z,91.40
2017-12-20T04:17:17.066Z,91.40
2017-12-20T04:19:45.286Z,91.40
2017-12-20T04:22:12.760Z,91.40
2017-12-20T04:24:40.374Z,91.50
2017-12-20T04:27:08.599Z,91.50
2017-12-20T04:29:36.110Z,91.50
2017-12-20T04:32:04.470Z,91.40
2017-12-20T04:34:31.922Z,91.40
2017-12-20T04:36:59.420Z,91.50
2017-12-20T04:39:26.883Z,91.50
2017-12-20T04:41:54.378Z,91.50
2017-12-20T04:44:21.821Z,91.40
2017-12-20T04:46:49.364Z,91.50
2017-12-20T04:49:16.854Z,91.50
2017-12-20T04:51:44.286Z,91.50
2017-12-20T04:54:11.779Z,91.50
2017-12-20T04:56:39.248Z,91.50
2017-12-20T04:59:06.745Z,91.50
2017-12-20T05:01:34.194Z,91.40
2017-12-20T05:04:01.706Z,91.40
2017-12-20T05:06:29.185Z,91.50
2017-12-20T05:08:56.646Z,91.50
2017-12-20T05:11:24.934Z,91.50
2017-12-20T05:13:53.163Z,91.50
2017-12-20T05:16:20.643Z,91.50
2017-12-20T05:18:48.110Z,91.50
2017-12-20T05:21:16.387Z,91.50
2017-12-20T05:23:43.876Z,91.50
2017-12-20T05:26:11.363Z,91.40
2017-12-20T05:28:38.850Z,91.50
2017-12-20T05:31:06.309Z,91.50
2017-12-20T05:33:33.803Z,91.50
2017-12-20T05:36:01.276Z,91.50
2017-12-20T05:38:28.788Z,91.50
2017-12-20T05:40:56.610Z,91.50
2017-12-20T05:43:24.055Z,91.50
2017-12-20T05:45:51.519Z,91.50
2017-12-20T05:48:18.998Z,91.50
2017-12-20T05:50:46.455Z,91.50
2017-12-20T05:53:13.942Z,91.50
2017-12-20T05:55:41.443Z,91.50
2017-12-20T05:58:08.914Z,91.40
2017-12-20T06:00:36.390Z,91.50
2017-12-20T06:03:03.878Z,91.50
2017-12-20T06:05:31.380Z,91.50
2017-12-20T06:07:58.857Z,91.50
2017-12-20T06:10:26.311Z,91.50
2017-12-20T06:12:53.806Z,91.50
2017-12-20T06:15:21.263Z,91.50
2017-12-20T06:17:48.750Z,91.50
2017-12-20T06:20:16.975Z,91.50
2017-12-20T06:22:44.427Z,91.50
2017-12-20T06:25:11.950Z,91.40
2017-12-20T06:27:40.164Z,91.40
2017-12-20T06:30:07.671Z,91.40
2017-12-20T06:32:35.903Z,91.40
2017-12-20T06:35:03.354Z,91.40
2017-12-20T06:37:30.858Z,91.40
2017-12-20T06:39:58.316Z,91.40
2017-12-20T06:42:25.823Z,91.40
2017-12-20T06:44:53.281Z,91.40
2017-12-20T06:47:20.778Z,91.50
2017-12-20T06:49:48.271Z,91.50
2017-12-20T06:52:16.530Z,91.50
2017-12-20T06:54:44.769Z,91.50
2017-12-20T06:57:12.264Z,91.50
2017-12-20T06:59:39.797Z,91.50
2017-12-20T07:02:07.248Z,91.40
2017-12-20T07:04:34.762Z,91.40
2017-12-20T07:07:02.980Z,91.40
2017-12-20T07:09:31.232Z,91.40
2017-12-20T07:11:58.732Z,91.40
2017-12-20T07:14:26.204Z,91.40
2017-12-20T07:16:53.713Z,91.40
2017-12-20T07:19:21.163Z,91.50
2017-12-20T07:21:48.681Z,91.50
2017-12-20T07:24:16.181Z,91.50
2017-12-20T07:26:43.674Z,91.50
2017-12-20T07:29:11.936Z,91.60
2017-12-20T07:31:39.419Z,91.60
2017-12-20T07:34:06.915Z,91.60
2017-12-20T07:36:35.198Z,91.60
2017-12-20T07:39:03.490Z,91.60
2017-12-20T07:41:30.987Z,91.60
2017-12-20T07:43:58.464Z,92.00
2017-12-20T07:46:25.937Z,90.10
2017-12-20T07:48:54.196Z,83.10
2017-12-20T07:51:21.687Z,83.10
2017-12-20T07:53:49.167Z,86.70
2017-12-20T07:56:16.672Z,89.40
2017-12-20T07:58:44.143Z,90.50
2017-12-20T08:01:12.418Z,90.10
2017-12-20T08:03:39.887Z,90.10
2017-12-20T08:06:08.132Z,89.40
2017-12-20T08:08:35.628Z,89.40
2017-12-20T08:11:03.131Z,90.20
2017-12-20T08:13:30.612Z,90.60
2017-12-20T08:15:58.086Z,91.10
2017-12-20T08:18:25.590Z,91.30
2017-12-20T08:20:53.071Z,91.40
2017-12-20T08:23:21.364Z,91.40
2017-12-20T08:25:48.858Z,91.50
2017-12-20T08:28:17.144Z,91.50
2017-12-20T08:30:44.602Z,91.50
2017-12-20T08:33:12.076Z,91.60
2017-12-20T08:35:39.569Z,91.70
2017-12-20T08:38:07.052Z,91.70
2017-12-20T08:40:35.311Z,91.70
2017-12-20T08:43:02.826Z,91.70
2017-12-20T08:45:30.310Z,91.70
2017-12-20T08:47:57.867Z,91.70
2017-12-20T08:50:25.394Z,91.70
2017-12-20T08:52:52.878Z,91.70
2017-12-20T08:55:20.373Z,91.70
2017-12-20T08:57:47.942Z,91.70
2017-12-20T09:00:16.222Z,91.80
2017-12-20T09:02:44.535Z,91.80
2017-12-20T09:05:12.026Z,91.80
2017-12-20T09:07:39.519Z,91.80
2017-12-20T09:10:07.832Z,91.80
2017-12-20T09:12:35.294Z,91.80
2017-12-20T09:15:02.782Z,91.80
2017-12-20T09:17:35.496Z,91.80
2017-12-20T09:20:03.782Z,91.70
2017-12-20T09:22:32.007Z,91.80
2017-12-20T09:24:59.513Z,91.80
2017-12-20T09:27:27.781Z,91.80
2017-12-20T09:29:56.019Z,91.70
2017-12-20T09:32:23.533Z,91.70
2017-12-20T09:34:51.797Z,91.60
2017-12-20T09:37:20.069Z,91.60
2017-12-20T09:39:48.315Z,91.50
2017-12-20T09:42:15.780Z,91.50
2017-12-20T09:44:43.310Z,91.50
2017-12-20T09:47:10.798Z,91.50
2017-12-20T09:49:38.318Z,91.50
2017-12-20T09:52:05.798Z,91.60
2017-12-20T09:54:33.338Z,91.40
2017-12-20T09:57:00.839Z,91.40
2017-12-20T09:59:28.340Z,91.40
2017-12-20T10:01:56.602Z,91.40
2017-12-20T10:04:24.879Z,91.40
2017-12-20T10:06:53.138Z,91.50
2017-12-20T10:09:20.602Z,91.50
2017-12-20T10:11:48.134Z,91.50
2017-12-20T10:14:15.599Z,91.60
2017-12-20T10:16:43.070Z,91.60
2017-12-20T10:19:10.575Z,91.60
2017-12-20T10:21:38.039Z,91.70
2017-12-20T10:24:05.559Z,91.60
2017-12-20T10:26:33.037Z,91.60
2017-12-20T10:29:00.548Z,91.70
2017-12-20T10:31:28.046Z,91.60
2017-12-20T10:33:56.335Z,91.70
2017-12-20T10:36:24.316Z,91.70
2017-12-20T10:38:51.830Z,91.70
2017-12-20T10:41:19.319Z,91.80
2017-12-20T10:43:46.835Z,91.80
2017-12-20T10:46:14.302Z,91.80
2017-12-20T10:48:41.798Z,91.80
2017-12-20T10:51:10.066Z,91.70
2017-12-20T10:53:38.299Z,91.70
2017-12-20T10:56:05.788Z,91.70
2017-12-20T10:58:33.281Z,91.70
2017-12-20T11:01:00.781Z,91.70
2017-12-20T11:03:28.275Z,91.70
2017-12-20T11:05:56.534Z,91.70
2017-12-20T11:08:24.042Z,91.70
2017-12-20T11:10:51.511Z,91.60
2017-12-20T11:13:18.971Z,91.70
2017-12-20T11:15:46.467Z,91.70
2017-12-20T11:18:14.013Z,91.80
2017-12-20T11:20:41.494Z,91.70
2017-12-20T11:23:09.790Z,91.60
2017-12-20T11:25:38.026Z,91.60
2017-12-20T11:28:05.542Z,91.60
2017-12-20T11:30:33.020Z,91.60
2017-12-20T11:33:00.540Z,91.60
2017-12-20T11:35:28.770Z,91.60
2017-12-20T11:37:57.004Z,91.50
2017-12-20T11:40:24.489Z,91.50
2017-12-20T11:42:51.971Z,91.50
2017-12-20T11:45:19.501Z,91.50
2017-12-20T11:47:46.972Z,91.50
2017-12-20T11:50:14.506Z,91.50
2017-12-20T11:52:41.984Z,91.50
2017-12-20T11:55:09.497Z,91.60
2017-12-20T11:57:37.830Z,91.60
2017-12-20T12:00:05.330Z,91.50
2017-12-20T12:02:33.586Z,91.60
2017-12-20T12:05:01.055Z,91.60
2017-12-20T12:07:29.314Z,91.50
2017-12-20T12:09:56.874Z,91.50
2017-12-20T12:12:24.334Z,91.50
2017-12-20T12:14:51.827Z,91.50
2017-12-20T12:17:19.322Z,91.50
2017-12-20T12:19:46.811Z,91.40
2017-12-20T12:22:14.280Z,91.40
2017-12-20T12:24:41.795Z,91.40
2017-12-20T12:27:09.280Z,91.50
2017-12-20T12:29:36.773Z,91.50
2017-12-20T12:32:05.030Z,91.50
2017-12-20T12:34:32.549Z,91.50
2017-12-20T12:37:00.055Z,91.30
2017-12-20T12:39:27.519Z,91.40
2017-12-20T12:41:55.813Z,91.40
2017-12-20T12:44:24.036Z,91.40
2017-12-20T12:46:51.530Z,91.40
2017-12-20T12:49:19.774Z,91.50
2017-12-20T12:51:47.271Z,91.50
2017-12-20T12:54:15.553Z,91.60
2017-12-20T12:56:43.788Z,91.60
2017-12-20T12:59:11.300Z,91.60
2017-12-20T13:01:38.779Z,91.50
2017-12-20T13:04:06.306Z,91.40
2017-12-20T13:06:34.583Z,91.40
2017-12-20T13:09:02.857Z,91.40
2017-12-20T13:11:31.115Z,91.40
2017-12-20T13:13:58.599Z,91.40
2017-12-20T13:16:26.890Z,91.50
2017-12-20T13:18:54.364Z,91.50
2017-12-20T13:21:21.880Z,91.50
2017-12-20T13:23:49.369Z,91.60
2017-12-20T13:26:16.859Z,91.60
2017-12-20T13:28:44.371Z,91.60
2017-12-20T13:31:12.596Z,91.50
2017-12-20T13:33:40.122Z,91.50
2017-12-20T13:36:07.629Z,91.90
2017-12-20T13:38:35.162Z,92.20
2017-12-20T13:41:02.684Z,92.20
2017-12-20T13:43:30.199Z,90.60
2017-12-20T13:45:57.747Z,90.20
2017-12-20T13:48:25.221Z,90.00
2017-12-20T13:50:52.721Z,90.30
2017-12-20T13:53:20.178Z,90.60
2017-12-20T13:55:47.689Z,90.00
2017-12-20T13:58:15.191Z,90.50
2017-12-20T14:00:43.467Z,90.90
2017-12-20T14:03:10.980Z,90.90
2017-12-20T14:05:38.435Z,90.90
2017-12-20T14:08:05.960Z,91.00
2017-12-20T14:10:33.466Z,91.10
2017-12-20T14:13:00.991Z,91.10
2017-12-20T14:15:28.501Z,91.20
2017-12-20T14:17:55.983Z,91.20
2017-12-20T14:20:24.248Z,91.20
2017-12-20T14:22:52.502Z,91.20
2017-12-20T14:25:19.995Z,91.20
2017-12-20T14:27:47.487Z,91.20
2017-12-20T14:30:14.995Z,91.20
2017-12-20T14:32:43.226Z,91.10
2017-12-20T14:35:10.726Z,91.10
2017-12-20T14:37:38.954Z,91.10
2017-12-20T14:40:06.437Z,91.10
2017-12-20T14:42:33.930Z,91.10
2017-12-20T14:45:02.169Z,91.20
2017-12-20T14:47:29.683Z,91.20
2017-12-20T14:49:57.153Z,91.30
2017-12-20T14:52:24.630Z,91.20
2017-12-20T14:54:52.139Z,91.30
2017-12-20T14:57:20.403Z,91.20
2017-12-20T14:59:47.926Z,91.20
2017-12-20T15:02:15.394Z,91.30
2017-12-20T15:04:42.893Z,91.30
2017-12-20T15:07:11.168Z,91.30
2017-12-20T15:09:39.428Z,91.20
2017-12-20T15:12:06.910Z,91.20
2017-12-20T15:14:35.162Z,91.40
2017-12-20T15:17:02.668Z,91.40
2017-12-20T15:19:30.139Z,91.30
2017-12-20T15:21:57.634Z,91.30
2017-12-20T15:24:25.128Z,91.40
2017-12-20T15:26:53.399Z,91.40
2017-12-20T15:29:21.659Z,91.30
2017-12-20T15:31:49.123Z,91.40
2017-12-20T15:34:17.399Z,91.30
2017-12-20T15:36:44.894Z,91.30
2017-12-20T15:39:12.403Z,91.20
2017-12-20T15:41:39.901Z,91.20
2017-12-20T15:44:07.375Z,91.30
2017-12-20T15:46:34.891Z,91.30
2017-12-20T15:49:02.347Z,91.30
2017-12-20T15:51:29.867Z,91.40
2017-12-20T15:53:57.362Z,91.30
2017-12-20T15:56:24.828Z,91.30
2017-12-20T15:58:53.129Z,91.40
2017-12-20T16:01:20.630Z,91.40
2017-12-20T16:03:48.146Z,91.30
2017-12-20T16:06:15.659Z,91.40
2017-12-20T16:08:43.162Z,91.30
2017-12-20T16:11:10.670Z,91.30
2017-12-20T16:13:38.175Z,91.30
2017-12-20T16:16:06.691Z,91.30
2017-12-20T16:18:34.158Z,91.30
2017-12-20T16:21:01.680Z,91.20
2017-12-20T16:23:29.928Z,91.30
2017-12-20T16:25:57.414Z,91.30
2017-12-20T16:28:25.670Z,91.20
2017-12-20T16:30:53.915Z,91.20
2017-12-20T16:33:21.447Z,91.20
2017-12-20T16:35:48.929Z,91.20
2017-12-20T16:38:16.426Z,91.20
2017-12-20T16:40:44.707Z,91.30
2017-12-20T16:43:12.927Z,91.20
2017-12-20T16:45:40.418Z,91.30
2017-12-20T16:48:07.879Z,91.30
2017-12-20T16:50:35.384Z,91.10
2017-12-20T16:53:02.838Z,91.20
2017-12-20T16:55:30.368Z,91.20
2017-12-20T16:57:57.854Z,91.30
2017-12-20T17:00:25.338Z,91.30
2017-12-20T17:02:52.839Z,91.30
2017-12-20T17:05:20.349Z,91.40
2017-12-20T17:07:47.808Z,91.40
2017-12-20T17:10:15.330Z,91.40
2017-12-20T17:12:43.579Z,91.30
2017-12-20T17:15:11.052Z,91.30
2017-12-20T17:17:38.560Z,91.30
2017-12-20T17:20:06.053Z,91.20
2017-12-20T17:22:33.534Z,91.30
2017-12-20T17:25:01.828Z,91.30
2017-12-20T17:27:30.064Z,91.30
2017-12-20T17:29:57.556Z,91.30
2017-12-20T17:32:25.787Z,91.40
2017-12-20T17:34:53.277Z,91.40
2017-12-20T17:37:20.742Z,91.40
2017-12-20T17:39:49.035Z,91.40
2017-12-20T17:42:16.533Z,91.40
2017-12-20T17:44:44.039Z,91.40
2017-12-20T17:47:12.274Z,91.40
2017-12-20T17:49:39.786Z,91.40
2017-12-20T17:52:08.014Z,91.30
2017-12-20T17:54:35.520Z,91.30
2017-12-20T17:57:03.762Z,91.30
2017-12-20T17:59:31.291Z,91.30
2017-12-20T18:01:58.800Z,91.30
2017-12-20T18:04:27.039Z,91.40
2017-12-20T18:06:54.534Z,91.40
2017-12-20T18:09:22.811Z,91.40
2017-12-20T18:11:50.300Z,91.40
2017-12-20T18:14:17.851Z,91.40
2017-12-20T18:16:46.082Z,91.40
2017-12-20T18:19:13.560Z,91.40
2017-12-20T18:21:41.062Z,91.40
2017-12-20T18:24:08.581Z,91.40
2017-12-20T18:26:36.863Z,91.40
2017-12-20T18:29:05.107Z,91.40
2017-12-20T18:31:32.611Z,91.40
2017-12-20T18:34:00.078Z,91.40
2017-12-20T18:36:27.597Z,91.30
2017-12-20T18:38:55.046Z,91.20
2017-12-20T18:41:22.668Z,91.20
2017-12-20T18:43:50.154Z,91.30
2017-12-20T18:46:17.666Z,91.30
2017-12-20T18:48:45.920Z,91.30
2017-12-20T18:51:13.386Z,91.30
2017-12-20T18:53:41.675Z,91.30
2017-12-20T18:56:09.907Z,91.30
2017-12-20T18:58:37.410Z,91.30
2017-12-20T19:01:05.680Z,91.40
2017-12-20T19:03:33.930Z,91.40
2017-12-20T19:06:01.441Z,91.40
2017-12-20T19:08:28.915Z,91.40
2017-12-20T19:10:56.410Z,91.50
2017-12-20T19:13:23.912Z,91.60
2017-12-20T19:15:51.407Z,91.50
2017-12-20T19:18:18.862Z,91.50
2017-12-20T19:20:46.341Z,91.50
2017-12-20T19:23:14.623Z,91.40
2017-12-20T19:25:42.095Z,91.40
2017-12-20T19:28:10.340Z,91.50
2017-12-20T19:30:37.826Z,91.50
2017-12-20T19:33:06.083Z,91.50
2017-12-20T19:35:33.594Z,91.40
2017-12-20T19:38:01.888Z,91.50
2017-12-20T19:40:29.366Z,91.50
2017-12-20T19:42:56.847Z,91.40
2017-12-20T19:45:25.851Z,91.60
2017-12-20T19:47:54.090Z,91.60
2017-12-20T19:50:21.594Z,91.60
2017-12-20T19:52:49.827Z,91.60
2017-12-20T19:55:17.444Z,91.60
2017-12-20T19:57:45.685Z,91.60
2017-12-20T20:00:13.140Z,91.60
2017-12-20T20:02:40.647Z,91.50
2017-12-20T20:05:08.115Z,91.50
2017-12-20T20:07:35.595Z,91.50
2017-12-20T20:10:03.088Z,91.50
2017-12-20T20:12:30.600Z,91.50
2017-12-20T20:14:58.087Z,91.50
2017-12-20T20:17:25.569Z,91.50
2017-12-20T20:19:53.062Z,91.50
2017-12-20T20:22:20.567Z,91.50
2017-12-20T20:24:48.047Z,91.50
2017-12-20T20:27:15.572Z,91.50
2017-12-20T20:29:43.038Z,91.50
2017-12-20T20:32:10.552Z,91.50
2017-12-20T20:34:38.011Z,91.60
2017-12-20T20:37:05.506Z,91.60
2017-12-20T20:39:33.007Z,91.50
2017-12-20T20:42:01.278Z,91.60
2017-12-20T20:44:29.541Z,91.60
2017-12-20T20:46:57.002Z,91.60
2017-12-20T20:49:24.512Z,91.60
2017-12-20T21:04:57.015Z,91.60
2017-12-20T21:07:24.528Z,91.60
2017-12-20T21:09:52.020Z,91.60
2017-12-20T21:12:19.509Z,91.60
2017-12-20T21:14:47.054Z,91.60
2017-12-20T21:17:14.497Z,91.50
2017-12-20T21:19:41.954Z,91.50
2017-12-20T21:22:09.487Z,91.50
2017-12-20T21:24:36.955Z,91.50
2017-12-20T21:27:04.471Z,91.50
2017-12-20T21:29:32.730Z,91.60
2017-12-20T21:32:00.222Z,91.50
2017-12-20T21:34:27.747Z,91.60
2017-12-20T21:36:55.242Z,91.60
2017-12-20T21:39:22.764Z,91.60
2017-12-20T21:41:50.391Z,91.50
2017-12-20T21:44:17.878Z,91.60
2017-12-20T21:46:45.362Z,91.60
2017-12-20T21:49:13.610Z,91.60
2017-12-20T21:51:41.126Z,91.60
2017-12-20T21:54:08.615Z,91.60
2017-12-20T21:56:36.099Z,91.60
2017-12-20T21:59:03.586Z,91.60
2017-12-20T22:01:31.091Z,91.60
2017-12-20T22:03:58.597Z,91.50
2017-12-20T22:06:26.847Z,91.60
2017-12-20T22:08:54.343Z,91.60
2017-12-20T22:11:21.839Z,91.60
2017-12-20T22:13:49.379Z,91.60
2017-12-20T22:16:16.833Z,91.60
2017-12-20T22:18:44.372Z,91.60
2017-12-20T22:21:12.608Z,91.60
2017-12-20T22:23:40.102Z,91.60
2017-12-20T22:26:08.372Z,91.70
2017-12-20T22:28:35.867Z,91.70
2017-12-20T22:31:03.365Z,91.70
2017-12-20T22:33:30.909Z,91.70
2017-12-20T22:35:58.371Z,91.60
2017-12-20T22:38:25.843Z,91.60
2017-12-20T22:40:53.359Z,91.60
2017-12-20T22:43:20.828Z,91.50
2017-12-20T22:45:48.310Z,91.60
2017-12-20T22:48:15.802Z,91.60
2017-12-20T22:50:44.046Z,91.50
2017-12-20T22:53:11.561Z,91.50
2017-12-20T22:55:39.039Z,91.50
2017-12-20T22:58:06.530Z,91.50
2017-12-20T23:00:34.009Z,91.50
2017-12-20T23:03:02.264Z,91.50
2017-12-20T23:05:29.778Z,91.50
2017-12-20T23:07:57.278Z,91.60
2017-12-20T23:10:24.766Z,91.60
2017-12-20T23:12:53.007Z,91.60
2017-12-20T23:15:20.517Z,91.60
2017-12-20T23:17:48.736Z,91.60
2017-12-20T23:20:16.226Z,91.60
2017-12-20T23:22:44.498Z,91.60
2017-12-20T23:25:11.966Z,91.60
2017-12-20T23:27:40.238Z,91.50
2017-12-20T23:30:07.725Z,91.50
2017-12-20T23:32:35.189Z,91.50
2017-12-20T23:35:02.731Z,91.50
2017-12-20T23:37:31.004Z,91.40
2017-12-20T23:39:59.274Z,91.40
2017-12-20T23:42:27.506Z,91.40
2017-12-20T23:44:55.002Z,91.40
2017-12-20T23:47:23.268Z,91.40
2017-12-20T23:49:50.738Z,91.40
2017-12-20T23:52:19.010Z,91.30
2017-12-20T23:54:46.476Z,91.30
2017-12-20T23:57:13.971Z,91.30
2017-12-20T23:59:41.468Z,91.40
